Time;durP1;ratioP1;P1;durP2;ratioP2;P2;SDS_P1;SDS_P2;PMS_P1;PMS_P2;Temp;Humidity;BMP_temperature;BMP_pressure;BME280_temperature;BME280_humidity;BME280_pressure;Samples;Min_cycle;Max_cycle;Signal;HPM_P1;HPM_P2
2023/04/25 00:01:23;;;;;;;4.68;1.75;;;;;;;23.28;40.71;98607.53;4365453;32;34705;-61
2023/04/25 00:03:51;;;;;;;2.55;1.45;;;;;;;23.28;40.72;98612.97;4362493;32;33908;-61
2023/04/25 00:06:20;;;;;;;3.75;1.95;;;;;;;23.27;40.72;98603.12;4362222;32;34896;-61
2023/04/25 00:08:47;;;;;;;5.50;1.80;;;;;;;23.26;40.75;98598.78;4362544;32;34417;-61
2023/04/25 00:11:15;;;;;;;4.28;1.90;;;;;;;23.26;40.74;98598.78;4362360;32;34871;-61
2023/04/25 00:13:43;;;;;;;3.85;1.80;;;;;;;23.26;40.76;98593.31;4362259;32;34011;-61
2023/04/25 00:16:11;;;;;;;2.72;1.60;;;;;;;23.26;40.77;98593.31;4362207;32;33903;-61
2023/04/25 00:18:39;;;;;;;3.35;1.83;;;;;;;23.25;40.76;98589.78;4362641;32;33522;-61
2023/04/25 00:21:07;;;;;;;2.85;1.50;;;;;;;23.24;40.79;98584.59;4362247;32;34572;-61
2023/04/25 00:23:36;;;;;;;2.87;1.60;;;;;;;23.25;40.80;98594.41;4362258;32;33906;-61
2023/04/25 00:26:03;;;;;;;2.87;1.70;;;;;;;23.24;40.82;98592.78;4349125;32;34329;-60
2023/04/25 00:28:31;;;;;;;3.72;1.60;;;;;;;23.24;40.87;98590.87;4351035;32;33962;-61
2023/04/25 00:30:58;;;;;;;3.08;1.55;;;;;;;23.23;40.86;98589.22;4347289;33;33798;-61
2023/04/25 00:33:26;;;;;;;3.90;2.03;;;;;;;23.23;40.89;98582.97;4346346;33;33995;-61
2023/04/25 00:35:54;;;;;;;2.87;1.50;;;;;;;23.21;40.90;98569.59;4347215;33;33233;-61
2023/04/25 00:38:21;;;;;;;3.72;1.70;;;;;;;23.23;40.97;98578.34;4347489;33;33856;-61
2023/04/25 00:40:49;;;;;;;5.45;2.00;;;;;;;23.23;41.07;98577.53;4347386;33;33585;-61
2023/04/25 00:43:17;;;;;;;5.18;1.95;;;;;;;23.24;41.23;98576.44;4347442;33;33989;-61
2023/04/25 00:45:44;;;;;;;2.70;1.30;;;;;;;23.23;41.06;98577.53;4347436;33;33948;-61
2023/04/25 00:48:13;;;;;;;6.10;1.90;;;;;;;23.23;41.02;98572.09;4321934;33;33437;-61
2023/04/25 00:50:41;;;;;;;4.18;1.90;;;;;;;23.24;41.05;98579.16;4333792;33;33777;-61
2023/04/25 00:53:09;;;;;;;4.50;1.80;;;;;;;23.23;41.01;98572.91;4333920;33;34857;-61
2023/04/25 00:55:37;;;;;;;6.10;2.10;;;;;;;23.24;41.00;98573.72;4333683;33;34303;-61
2023/04/25 00:58:05;;;;;;;4.78;1.77;;;;;;;23.24;40.94;98563.66;4347365;33;33674;-61
2023/04/25 01:00:32;;;;;;;3.30;1.48;;;;;;;23.23;40.99;98561.19;4340248;32;34779;-61
2023/04/25 01:03:00;;;;;;;2.97;1.40;;;;;;;23.22;40.96;98554.91;4348766;32;33913;-61
2023/04/25 01:05:28;;;;;;;3.95;1.58;;;;;;;23.22;40.94;98557.62;4361876;32;35152;-61
2023/04/25 01:07:55;;;;;;;5.18;1.50;;;;;;;23.21;40.94;98553.28;4348504;32;33585;-61
2023/04/25 01:10:23;;;;;;;6.60;1.55;;;;;;;23.22;40.95;98549.47;4361922;32;34940;-61
2023/04/25 01:12:50;;;;;;;2.35;1.45;;;;;;;23.22;40.94;98556.81;4361924;32;33780;-61
2023/04/25 01:15:18;;;;;;;2.95;1.70;;;;;;;23.22;40.90;98557.62;4361991;32;33586;-61
2023/04/25 01:17:46;;;;;;;4.12;1.80;;;;;;;23.21;40.94;98561.44;4362262;32;33303;-61
2023/04/25 01:20:13;;;;;;;4.62;1.52;;;;;;;23.21;41.02;98561.44;4362139;32;34773;-61
2023/04/25 01:22:42;;;;;;;3.08;1.77;;;;;;;23.21;41.03;98561.44;4362158;32;34071;-61
2023/04/25 01:25:10;;;;;;;2.80;1.52;;;;;;;23.22;41.04;98548.66;4361843;32;34096;-60
2023/04/25 01:27:38;;;;;;;4.62;1.62;;;;;;;23.21;41.02;98566.88;4362093;32;34315;-60
2023/04/25 01:30:07;;;;;;;4.10;1.62;;;;;;;23.21;41.07;98563.34;4336597;32;33821;-60
2023/04/25 01:32:38;;;;;;;3.70;1.80;;;;;;;23.22;41.04;98556.81;4361824;32;34918;-60
2023/04/25 01:35:09;;;;;;;4.78;1.67;;;;;;;23.22;40.98;98559.53;4337053;32;34695;-61
2023/04/25 01:37:40;;;;;;;2.62;1.55;;;;;;;23.23;41.01;98555.75;4361895;32;33192;-61
2023/04/25 01:40:09;;;;;;;3.53;1.52;;;;;;;23.21;41.00;98552.44;4361914;32;34095;-60
2023/04/25 01:42:39;;;;;;;5.53;1.87;;;;;;;23.21;41.14;98550.56;4361786;32;34109;-61
2023/04/25 01:45:07;;;;;;;4.45;1.50;;;;;;;23.22;41.12;98567.69;4362100;32;34764;-60
2023/04/25 01:47:35;;;;;;;2.58;1.50;;;;;;;23.22;41.01;98556.81;4361661;32;33358;-61
2023/04/25 01:50:04;;;;;;;3.08;1.70;;;;;;;23.22;41.00;98551.38;4361723;32;33927;-61
2023/04/25 01:52:33;;;;;;;3.50;1.55;;;;;;;23.21;41.01;98547.00;4361747;32;34036;-61
2023/04/25 01:55:04;;;;;;;5.57;1.48;;;;;;;23.21;40.99;98557.91;4361896;32;34691;-61
2023/04/25 01:57:32;;;;;;;3.75;1.77;;;;;;;23.19;41.05;98555.44;4348763;32;33071;-61
2023/04/25 02:00:02;;;;;;;3.58;1.50;;;;;;;23.19;41.03;98563.59;4361720;32;34634;-61
2023/04/25 02:02:38;;;;;;;4.37;1.65;;;;;;;23.19;41.05;98558.16;4360790;32;33905;-60
2023/04/25 02:05:07;;;;;;;2.50;1.40;;;;;;;23.20;41.07;98558.97;4361922;32;33828;-61
2023/04/25 02:07:35;;;;;;;4.30;1.67;;;;;;;23.19;41.05;98560.06;4361880;32;33115;-61
2023/04/25 02:10:02;;;;;;;4.32;1.58;;;;;;;23.20;41.04;98564.41;4361696;32;34096;-61
2023/04/25 02:12:31;;;;;;;4.03;1.60;;;;;;;23.19;41.01;98569.03;4361859;32;33823;-61
2023/04/25 02:14:59;;;;;;;3.50;1.42;;;;;;;23.20;40.99;98570.69;4361917;32;34041;-61
2023/04/25 02:17:27;;;;;;;4.30;1.67;;;;;;;23.19;41.01;98571.75;4361922;32;33366;-61
2023/04/25 02:19:54;;;;;;;3.42;2.00;;;;;;;23.20;41.05;98556.25;4361481;32;34956;-61
2023/04/25 02:22:23;;;;;;;5.07;1.70;;;;;;;23.19;41.04;98551.91;4361670;32;34645;-61
2023/04/25 02:24:51;;;;;;;2.67;1.30;;;;;;;23.19;41.04;98569.03;4361536;32;33580;-61
2023/04/25 02:27:18;;;;;;;3.65;1.48;;;;;;;23.18;41.11;98570.13;4355564;32;33699;-61
2023/04/25 02:29:46;;;;;;;2.53;1.45;;;;;;;23.19;41.16;98560.06;4356755;32;34119;-61
2023/04/25 02:32:13;;;;;;;3.72;1.52;;;;;;;23.20;41.25;98557.06;4361434;32;33810;-61
2023/04/25 02:34:41;;;;;;;3.50;1.40;;;;;;;23.20;41.16;98556.25;4361280;32;34165;-62
2023/04/25 02:37:08;;;;;;;2.80;1.40;;;;;;;23.19;41.14;98551.91;4361260;32;33669;-61
2023/04/25 02:39:36;;;;;;;4.45;1.70;;;;;;;23.18;41.13;98551.06;4361442;32;34049;-61
2023/04/25 02:42:03;;;;;;;4.45;1.45;;;;;;;23.18;41.24;98561.97;4361548;32;33130;-61
2023/04/25 02:44:31;;;;;;;5.25;1.60;;;;;;;23.17;41.29;98552.97;4361409;32;34130;-61
2023/04/25 02:46:58;;;;;;;3.33;1.87;;;;;;;23.17;41.22;98552.97;4361274;32;33286;-61
2023/04/25 02:49:26;;;;;;;2.53;1.37;;;;;;;23.19;41.25;98565.50;4361199;32;34535;-61
2023/04/25 02:51:54;;;;;;;3.22;1.58;;;;;;;23.17;41.26;98558.44;4361599;32;33998;-61
2023/04/25 02:54:21;;;;;;;3.70;1.27;;;;;;;23.17;41.29;98552.97;4361470;32;34723;-61
2023/04/25 02:56:49;;;;;;;2.22;1.25;;;;;;;23.16;41.34;98556.75;4361266;32;33359;-61
2023/04/25 02:59:17;;;;;;;2.95;1.23;;;;;;;23.18;41.38;98553.81;4361415;32;34940;-61
2023/04/25 03:01:45;;;;;;;5.50;1.80;;;;;;;23.17;41.42;98558.44;4361179;32;33664;-61
2023/04/25 03:04:12;;;;;;;2.33;1.42;;;;;;;23.17;41.43;98554.84;4361301;32;34501;-61
2023/04/25 03:06:40;;;;;;;4.53;1.65;;;;;;;23.16;41.43;98556.75;4361150;32;33194;-61
2023/04/25 03:09:07;;;;;;;4.53;1.62;;;;;;;23.15;41.32;98555.13;4361089;32;34446;-61
2023/04/25 03:11:35;;;;;;;3.20;1.37;;;;;;;23.16;41.21;98555.94;4360884;32;34803;-61
2023/04/25 03:14:03;;;;;;;3.28;1.65;;;;;;;23.16;41.19;98551.31;4362069;32;34261;-61
2023/04/25 03:16:30;;;;;;;3.00;1.37;;;;;;;23.16;41.19;98551.31;4362960;32;33837;-61
2023/04/25 03:18:58;;;;;;;2.72;1.58;;;;;;;23.17;41.26;98554.84;4362840;32;33918;-61
2023/04/25 03:21:26;;;;;;;1.48;1.20;;;;;;;23.17;41.31;98543.97;4362619;32;34153;-61
2023/04/25 03:23:53;;;;;;;3.62;1.70;;;;;;;23.16;41.31;98547.78;4362888;32;34243;-61
2023/04/25 03:26:21;;;;;;;4.30;1.67;;;;;;;23.15;41.34;98557.03;4362716;32;34521;-61
2023/04/25 03:28:49;;;;;;;5.12;1.35;;;;;;;23.15;41.34;98555.13;4362902;32;33965;-61
2023/04/25 03:31:16;;;;;;;4.10;1.37;;;;;;;23.14;41.36;98553.47;4362943;32;33885;-61
2023/04/25 03:33:44;;;;;;;4.47;1.52;;;;;;;23.15;41.47;98559.75;4362333;32;33766;-61
2023/04/25 03:36:11;;;;;;;3.03;1.60;;;;;;;23.15;41.46;98559.75;4362399;32;33744;-61
2023/04/25 03:38:41;;;;;;;3.45;1.35;;;;;;;23.14;41.49;98560.81;4362804;32;33865;-61
2023/04/25 03:41:09;;;;;;;3.28;1.50;;;;;;;23.16;41.48;98569.53;4362662;32;34580;-61
2023/04/25 03:43:36;;;;;;;3.08;1.60;;;;;;;23.15;41.53;98552.41;4362521;32;34092;-61
2023/04/25 03:46:04;;;;;;;4.05;1.40;;;;;;;23.13;41.54;98562.72;4362844;32;33704;-61
2023/04/25 03:48:32;;;;;;;6.35;1.83;;;;;;;23.12;41.55;98561.06;4362581;32;34167;-61
2023/04/25 03:51:00;;;;;;;3.05;1.50;;;;;;;23.11;41.57;98564.88;4362411;32;34761;-61
2023/04/25 03:53:28;;;;;;;2.70;1.50;;;;;;;23.11;41.56;98561.31;4362715;32;34047;-61
2023/04/25 03:55:58;;;;;;;;;;;;;;;23.11;41.56;98564.88;4362851;32;34420;-61
2023/04/25 03:58:25;;;;;;;4.37;1.30;;;;;;;23.19;41.37;98566.31;4362509;32;34034;-61
2023/04/25 04:00:53;;;;;;;4.78;1.77;;;;;;;23.12;41.49;98568.41;4362437;32;33842;-61
2023/04/25 04:03:21;;;;;;;3.37;1.50;;;;;;;23.09;41.59;98568.94;4362625;32;33846;-61
2023/04/25 04:05:49;;;;;;;4.53;1.50;;;;;;;23.08;41.58;98569.97;4362435;32;34383;-60
2023/04/25 04:08:17;;;;;;;4.75;1.60;;;;;;;23.09;41.60;98567.03;4347819;32;33686;-62
2023/04/25 04:10:45;;;;;;;2.03;1.20;;;;;;;23.11;41.63;98572.19;4362400;32;33688;-61
2023/04/25 04:13:13;;;;;;;3.47;1.10;;;;;;;23.10;41.65;98559.69;4362643;32;34854;-61
2023/04/25 04:15:40;;;;;;;2.33;1.27;;;;;;;23.11;41.66;98573.03;4362146;32;33846;-61
2023/04/25 04:18:08;;;;;;;5.72;1.50;;;;;;;23.12;41.63;98571.13;4336898;32;33652;-61
2023/04/25 04:20:36;;;;;;;3.97;1.50;;;;;;;23.11;41.66;98581.19;4362594;32;34046;-61
2023/04/25 04:23:03;;;;;;;2.78;1.30;;;;;;;23.11;41.66;98575.75;4362354;32;34977;-61
2023/04/25 04:25:31;;;;;;;5.65;1.50;;;;;;;23.11;41.68;98574.94;4347193;33;33688;-61
2023/04/25 04:28:00;;;;;;;2.45;1.42;;;;;;;23.12;41.63;98579.28;4347610;33;33786;-61
2023/04/25 04:30:31;;;;;;;3.20;1.58;;;;;;;23.11;41.52;98583.09;4347369;33;35049;-60
2023/04/25 04:33:00;;;;;;;3.22;1.58;;;;;;;23.11;41.47;98578.47;4347164;33;34942;-61
2023/04/25 04:35:28;;;;;;;5.87;1.65;;;;;;;23.11;41.51;98581.19;4346702;33;34057;-61
2023/04/25 04:37:56;;;;;;;2.97;1.30;;;;;;;23.12;41.55;98580.09;4346457;33;34200;-61
2023/04/25 04:40:25;;;;;;;4.10;1.40;;;;;;;23.10;41.58;98581.44;4346809;33;33705;-61
2023/04/25 04:42:56;;;;;;;5.57;1.40;;;;;;;23.11;41.56;98583.91;4346811;33;34975;-61
2023/04/25 04:45:25;;;;;;;2.55;1.45;;;;;;;23.11;41.63;98583.91;4346516;33;33486;-61
2023/04/25 04:47:55;;;;;;;3.70;1.37;;;;;;;23.11;41.67;98588.53;4346660;33;33748;-61
2023/04/25 04:50:23;;;;;;;;;;;;;;;23.11;41.64;98588.53;4346773;33;34189;-61
2023/04/25 04:52:51;;;;;;;3.60;1.60;;;;;;;23.20;41.44;98589.72;4356030;32;34383;-61
2023/04/25 04:55:19;;;;;;;4.22;1.60;;;;;;;23.12;41.56;98582.00;4361173;32;33429;-61
2023/04/25 04:57:48;;;;;;;4.37;1.55;;;;;;;23.08;41.67;98581.72;4361145;32;33906;-61
2023/04/25 05:00:16;;;;;;;2.22;1.30;;;;;;;23.09;41.69;98591.50;4361420;32;34998;-61
2023/04/25 05:02:45;;;;;;;2.67;1.40;;;;;;;23.07;41.68;98596.38;4361403;32;34099;-61
2023/04/25 05:05:12;;;;;;;3.35;1.23;;;;;;;23.07;41.69;98595.56;4361190;32;33774;-61
2023/04/25 05:07:41;;;;;;;1.77;1.27;;;;;;;23.06;41.68;98594.72;4361402;32;32273;-60
2023/04/25 05:10:09;;;;;;;3.12;1.48;;;;;;;23.08;41.66;98597.19;4361348;32;34847;-61
2023/04/25 05:12:37;;;;;;;2.58;1.30;;;;;;;23.08;41.63;98600.75;4360980;32;34984;-61
2023/04/25 05:15:06;;;;;;;4.32;1.60;;;;;;;23.08;41.69;98581.72;4361317;32;34481;-62
2023/04/25 05:17:34;;;;;;;2.28;1.23;;;;;;;23.09;41.69;98585.25;4361097;32;34040;-62
2023/04/25 05:20:02;;;;;;;2.60;1.33;;;;;;;23.09;41.50;98591.50;4361090;32;33737;-61
2023/04/25 05:22:30;;;;;;;4.50;1.80;;;;;;;23.09;41.42;98588.78;4361169;32;33480;-61
2023/04/25 05:24:59;;;;;;;3.30;1.50;;;;;;;23.09;41.45;98588.78;4360810;32;34554;-61
2023/04/25 05:27:26;;;;;;;3.92;1.48;;;;;;;23.09;41.53;98587.97;4360989;32;34014;-61
2023/04/25 05:29:56;;;;;;;3.25;1.37;;;;;;;23.09;41.46;98590.69;4361161;32;34955;-63
2023/04/25 05:32:24;;;;;;;3.92;1.60;;;;;;;23.10;41.45;98589.63;4358163;32;93121;-61
2023/04/25 05:34:53;;;;;;;2.75;1.10;;;;;;;23.10;41.58;98597.78;4361618;32;33745;-61
2023/04/25 05:37:20;;;;;;;5.32;1.77;;;;;;;23.10;41.63;98595.06;4361648;32;34002;-59
2023/04/25 05:39:49;;;;;;;3.72;1.10;;;;;;;23.08;41.63;98595.31;4361943;32;33652;-59
2023/04/25 05:42:17;;;;;;;4.28;1.70;;;;;;;23.07;41.56;98596.38;4361766;32;34590;-60
2023/04/25 05:44:46;;;;;;;4.10;1.20;;;;;;;23.06;41.53;98592.00;4362065;32;33345;-60
2023/04/25 05:47:13;;;;;;;3.53;1.52;;;;;;;23.07;41.49;98590.09;4361480;32;34147;-62
2023/04/25 05:49:41;;;;;;;2.83;1.50;;;;;;;23.04;41.45;98586.00;4361575;32;34014;-59
2023/04/25 05:52:09;;;;;;;2.10;1.30;;;;;;;23.04;41.40;98594.19;4361667;32;34598;-60
2023/04/25 05:54:37;;;;;;;2.75;1.10;;;;;;;23.04;41.38;98602.34;4361812;32;34511;-62
2023/04/25 05:57:04;;;;;;;1.85;1.10;;;;;;;23.02;41.33;98590.03;4361562;32;33970;-60
2023/04/25 05:59:33;;;;;;;2.87;1.33;;;;;;;23.02;41.31;98593.59;4361712;32;34099;-60
2023/04/25 06:02:00;;;;;;;3.10;1.40;;;;;;;23.03;41.28;98595.22;4348243;32;34841;-58
2023/04/25 06:04:28;;;;;;;4.60;1.52;;;;;;;23.03;41.22;98591.69;4361825;32;33794;-62
2023/04/25 06:06:56;;;;;;;7.50;2.12;;;;;;;23.03;41.18;98589.78;4361629;32;34438;-63
2023/04/25 06:09:24;;;;;;;12.05;1.98;;;;;;;23.03;40.96;98595.22;4361366;32;34846;-60
2023/04/25 06:11:53;;;;;;;7.97;2.30;;;;;;;23.02;41.03;98593.59;4361762;32;34077;-59
2023/04/25 06:14:20;;;;;;;7.78;2.25;;;;;;;23.03;41.56;98595.22;4361752;32;34466;-62
2023/04/25 06:16:48;;;;;;;11.90;2.58;;;;;;;23.02;41.82;98588.16;4361545;32;33873;-60
2023/04/25 06:19:16;;;;;;;12.65;2.25;;;;;;;23.02;41.93;98600.94;4361546;32;32198;-59
2023/04/25 06:21:43;;;;;;;9.07;2.47;;;;;;;23.01;41.91;98593.84;4361647;32;35091;-62
2023/04/25 06:24:11;;;;;;;7.30;2.12;;;;;;;23.01;41.84;98591.13;4361058;32;34611;-59
2023/04/25 06:26:39;;;;;;;8.65;1.98;;;;;;;23.01;41.79;98596.56;4361823;32;33685;-63
2023/04/25 06:29:07;;;;;;;8.27;2.50;;;;;;;23.00;41.74;98598.47;4361557;32;34603;-59
2023/04/25 06:31:35;;;;;;;8.63;1.92;;;;;;;23.01;41.68;98602.84;4361493;32;34404;-63
2023/04/25 06:34:03;;;;;;;9.65;2.22;;;;;;;23.00;41.66;98592.22;4361445;32;33631;-60
2023/04/25 06:36:32;;;;;;;8.60;2.37;;;;;;;22.99;41.63;98588.69;4361559;32;34793;-62
2023/04/25 06:39:00;;;;;;;3.85;1.70;;;;;;;23.01;41.57;98591.13;4361127;32;34707;-59
2023/04/25 06:41:28;;;;;;;7.45;2.12;;;;;;;23.01;41.54;98600.13;4361208;32;34237;-60
2023/04/25 06:43:58;;;;;;;6.70;2.12;;;;;;;23.02;41.50;98593.59;4361320;32;35776;-60
2023/04/25 06:46:27;;;;;;;6.45;1.80;;;;;;;23.02;41.47;98599.03;4361493;32;33399;-62
2023/04/25 06:48:56;;;;;;;6.78;1.95;;;;;;;23.03;41.59;98594.41;4347712;32;32282;-59
2023/04/25 06:51:24;;;;;;;10.00;2.28;;;;;;;23.04;41.65;98591.47;4361337;32;33739;-60
2023/04/25 06:53:52;;;;;;;5.43;1.50;;;;;;;23.05;41.75;98598.53;4361255;32;33560;-60
2023/04/25 06:56:23;;;;;;;4.53;1.65;;;;;;;23.06;41.78;98592.00;4361128;32;34008;-61
2023/04/25 06:58:51;;;;;;;4.90;1.90;;;;;;;23.08;41.87;98591.75;4361193;32;34061;-60
2023/04/25 07:01:19;;;;;;;4.28;1.60;;;;;;;23.09;41.90;98609.75;4361383;32;34451;-62
2023/04/25 07:03:47;;;;;;;6.37;1.87;;;;;;;23.08;41.98;98598.03;4361428;32;33578;-57
2023/04/25 07:06:15;;;;;;;4.07;1.52;;;;;;;23.09;42.04;98598.84;4361172;32;34764;-60
2023/04/25 07:08:43;;;;;;;6.35;1.55;;;;;;;23.11;42.08;98608.41;4361298;32;33932;-60
2023/04/25 07:11:10;;;;;;;4.80;1.45;;;;;;;23.11;42.14;98602.94;4361019;32;34298;-63
2023/04/25 07:13:37;;;;;;;3.67;1.45;;;;;;;23.13;42.15;98603.53;4360917;32;33402;-60
2023/04/25 07:16:05;;;;;;;6.68;1.62;;;;;;;23.15;42.21;98606.00;4360969;32;34710;-63
2023/04/25 07:18:33;;;;;;;4.45;1.48;;;;;;;23.15;42.24;98608.72;4360829;32;33765;-57
2023/04/25 07:21:01;;;;;;;7.15;1.70;;;;;;;23.16;42.29;98605.72;4347382;32;34099;-62
2023/04/25 07:23:29;;;;;;;4.50;1.40;;;;;;;23.19;42.34;98606.31;4361025;32;33703;-60
2023/04/25 07:25:58;;;;;;;2.83;1.53;;;;;;;23.20;42.37;98613.41;4361160;32;33692;-63
2023/04/25 07:28:26;;;;;;;6.87;1.85;;;;;;;23.22;42.39;98609.34;4360612;32;34062;-60
2023/04/25 07:30:54;;;;;;;6.05;1.58;;;;;;;23.21;42.41;98615.84;4347252;32;34095;-63
2023/04/25 07:33:21;;;;;;;4.20;1.65;;;;;;;23.23;42.45;98610.19;4360888;32;33792;-60
2023/04/25 07:35:49;;;;;;;3.25;1.37;;;;;;;23.23;42.54;98613.72;4360556;32;34685;-63
2023/04/25 07:38:17;;;;;;;3.10;1.70;;;;;;;23.23;42.55;98613.72;4347007;32;32481;-60
2023/04/25 07:40:45;;;;;;;5.55;1.55;;;;;;;23.26;42.58;98612.38;4360880;32;34165;-62
2023/04/25 07:43:16;;;;;;;4.95;1.62;;;;;;;23.26;42.60;98624.09;4360749;32;33421;-60
2023/04/25 07:45:44;;;;;;;2.83;1.37;;;;;;;23.28;42.63;98613.78;4360859;32;33646;-59
2023/04/25 07:48:18;;;;;;;3.70;1.60;;;;;;;23.29;42.64;98617.31;4360656;32;33669;-59
2023/04/25 07:50:46;;;;;;;4.60;1.48;;;;;;;23.31;42.71;98621.41;4360732;32;34015;-60
2023/04/25 07:53:14;;;;;;;4.35;1.60;;;;;;;23.32;42.72;98620.38;4360700;32;34167;-61
2023/04/25 07:55:42;;;;;;;4.55;1.80;;;;;;;23.32;42.75;98616.81;4360491;32;33737;-61
2023/04/25 07:58:11;;;;;;;3.78;1.58;;;;;;;23.33;42.77;98607.56;4360529;32;34886;-59
2023/04/25 08:00:39;;;;;;;3.95;1.50;;;;;;;23.34;42.79;98610.03;4361332;32;34913;-60
2023/04/25 08:03:09;;;;;;;4.18;1.30;;;;;;;23.35;42.85;98611.69;4362605;32;34531;-61
2023/04/25 08:05:37;;;;;;;5.97;1.50;;;;;;;23.36;42.92;98621.50;4362635;32;33983;-60
2023/04/25 08:08:06;;;;;;;4.18;1.62;;;;;;;23.37;42.99;98608.72;4362660;32;33979;-59
2023/04/25 08:10:34;;;;;;;6.72;1.60;;;;;;;23.37;43.04;98623.16;4362427;32;35385;-59
2023/04/25 08:13:02;;;;;;;5.37;1.55;;;;;;;23.37;43.04;98623.16;4362631;32;34105;-61
2023/04/25 08:15:30;;;;;;;6.87;1.77;;;;;;;23.38;43.06;98622.06;4362527;32;34103;-58
2023/04/25 08:17:59;;;;;;;7.22;1.70;;;;;;;23.39;43.07;98628.31;4348572;32;32602;-60
2023/04/25 08:20:26;;;;;;;5.32;1.73;;;;;;;23.40;43.05;98624.53;4362384;32;34244;-61
2023/04/25 08:22:54;;;;;;;4.53;1.77;;;;;;;23.39;43.05;98628.31;4362543;32;33700;-59
2023/04/25 08:25:23;;;;;;;5.53;1.70;;;;;;;23.39;43.04;98625.59;4362043;32;33499;-57
2023/04/25 08:27:50;;;;;;;6.75;1.50;;;;;;;23.38;43.05;98616.63;4362234;32;34163;-59
2023/04/25 08:30:20;;;;;;;4.55;1.50;;;;;;;23.38;43.04;98629.41;4362344;32;34304;-60
2023/04/25 08:32:49;;;;;;;;;;;;;;;23.38;43.00;98619.34;4362527;32;33349;-61
2023/04/25 08:35:20;;;;;;;6.40;2.10;;;;;;;23.48;42.77;98628.69;4362480;32;35173;-61
2023/04/25 08:37:49;;;;;;;6.90;1.58;;;;;;;23.40;42.87;98633.50;4362240;32;34040;-62
2023/04/25 08:40:16;;;;;;;8.23;1.52;;;;;;;23.39;42.88;98641.94;4354897;32;35012;-62
2023/04/25 08:42:44;;;;;;;4.57;1.60;;;;;;;23.37;42.85;98641.38;4377340;32;34368;-63
2023/04/25 08:45:13;;;;;;;5.57;1.50;;;;;;;23.37;42.76;98638.66;4357607;32;33700;-62
2023/04/25 08:47:41;;;;;;;7.00;1.92;;;;;;;23.34;42.71;98637.25;4362349;32;34742;-60
2023/04/25 08:50:09;;;;;;;2.78;1.20;;;;;;;23.34;42.66;98639.16;4350320;32;34203;-59
2023/04/25 08:52:39;;;;;;;5.87;1.67;;;;;;;23.35;42.61;98643.53;4361912;32;33692;-62
2023/04/25 08:55:08;;;;;;;4.70;1.42;;;;;;;23.34;42.55;98645.41;4360741;32;34659;-65
2023/04/25 08:57:35;;;;;;;4.25;1.52;;;;;;;23.34;42.50;98650.88;4348967;32;34031;-64
2023/04/25 09:00:04;;;;;;;5.32;1.55;;;;;;;23.34;42.44;98653.59;4362053;32;34317;-65
2023/04/25 09:02:33;;;;;;;3.72;1.50;;;;;;;23.34;42.42;98658.22;4362252;32;33668;-64
2023/04/25 09:05:04;;;;;;;5.68;1.52;;;;;;;23.34;42.32;98658.22;4362013;32;34144;-63
2023/04/25 09:07:31;;;;;;;6.18;1.55;;;;;;;23.33;42.20;98656.56;4361832;32;33720;-60
2023/04/25 09:10:01;;;;;;;8.02;1.73;;;;;;;23.33;42.20;98656.56;4362038;32;34094;-64
2023/04/25 09:12:30;;;;;;;6.95;1.77;;;;;;;23.32;42.28;98660.37;4360318;32;34264;-62
2023/04/25 09:15:16;;;;;;;4.50;1.45;;;;;;;23.32;42.12;98654.94;4347072;32;34124;-61
2023/04/25 09:17:58;;;;;;;9.10;2.00;;;;;;;23.32;42.15;98661.19;4347071;33;34858;-63
2023/04/25 09:20:26;;;;;;;12.35;1.90;;;;;;;23.31;42.13;98648.62;4347939;32;34751;-65
2023/04/25 09:23:03;;;;;;;4.97;1.70;;;;;;;23.30;42.04;98644.28;4361654;32;33773;-59
2023/04/25 09:25:36;;;;;;;5.07;1.37;;;;;;;23.30;42.01;98640.75;4361984;32;34125;-60
2023/04/25 09:28:05;;;;;;;7.45;1.65;;;;;;;23.29;41.94;98644.53;4359034;32;33791;-62
2023/04/25 09:30:33;;;;;;;6.85;1.67;;;;;;;23.29;42.02;98639.09;4371839;32;34103;-66
2023/04/25 09:33:10;;;;;;;4.62;1.65;;;;;;;23.28;42.15;98643.72;4376226;32;34299;-61
2023/04/25 09:35:45;;;;;;;7.12;1.58;;;;;;;23.29;42.21;98637.19;4361775;32;33985;-66
2023/04/25 09:38:13;;;;;;;7.65;1.90;;;;;;;23.29;42.28;98639.09;4361967;32;33917;-64
2023/04/25 09:40:46;;;;;;;9.10;1.92;;;;;;;23.28;42.36;98643.72;4361837;32;34144;-61
2023/04/25 09:43:24;;;;;;;7.03;1.62;;;;;;;23.28;42.40;98627.41;4334528;32;33754;-65
2023/04/25 09:45:53;;;;;;;7.62;1.95;;;;;;;23.32;42.42;98638.59;4362788;32;33920;-63
2023/04/25 09:48:24;;;;;;;7.45;2.03;;;;;;;23.33;42.54;98634.78;4376132;32;34020;-62
2023/04/25 09:51:14;;;;;;;5.78;1.90;;;;;;;23.33;42.59;98643.78;4376545;32;33780;-57
2023/04/25 09:53:43;;;;;;;6.65;1.80;;;;;;;23.36;42.64;98639.72;4376320;32;33742;-65
2023/04/25 09:56:12;;;;;;;5.05;1.90;;;;;;;23.35;42.69;98646.25;4371574;32;34692;-59
2023/04/25 09:58:40;;;;;;;6.45;1.55;;;;;;;23.36;42.69;98653.31;4360684;32;34954;-56
2023/04/25 10:01:09;;;;;;;3.85;1.55;;;;;;;23.35;42.75;98643.53;4338289;33;35436;-57
2023/04/25 10:03:39;;;;;;;5.82;1.75;;;;;;;23.36;42.74;98653.31;4358368;32;34101;-59
2023/04/25 10:06:19;;;;;;;3.60;1.35;;;;;;;23.35;42.74;98643.53;4357035;32;34013;-58
2023/04/25 10:08:50;;;;;;;4.90;1.83;;;;;;;23.36;42.74;98639.72;4361123;32;34659;-60
2023/04/25 10:11:18;;;;;;;7.30;2.15;;;;;;;23.35;42.71;98649.78;4360157;32;34140;-63
2023/04/25 10:13:45;;;;;;;6.82;1.73;;;;;;;23.37;42.72;98646.81;4329276;33;33037;-65
2023/04/25 10:16:13;;;;;;;6.85;2.05;;;;;;;23.36;42.68;98647.88;4350797;32;33991;-63
2023/04/25 10:18:40;;;;;;;4.97;1.92;;;;;;;23.36;42.68;98653.31;4357624;32;34350;-63
2023/04/25 10:21:08;;;;;;;4.85;1.70;;;;;;;23.38;42.65;98645.75;4357736;32;34278;-65
2023/04/25 10:23:35;;;;;;;5.53;1.65;;;;;;;23.36;42.63;98642.44;4331483;33;33728;-64
2023/04/25 10:26:03;;;;;;;6.45;1.60;;;;;;;23.38;42.60;98645.75;4321019;32;33979;-65
2023/04/25 10:28:33;;;;;;;8.73;1.75;;;;;;;23.37;42.59;98652.28;4333375;33;33700;-65
2023/04/25 10:31:02;;;;;;;7.35;1.65;;;;;;;23.37;42.58;98649.53;4323439;32;36503;-66
2023/04/25 10:33:34;;;;;;;6.45;1.87;;;;;;;23.36;42.55;98642.44;4346518;33;33394;-63
2023/04/25 10:36:18;;;;;;;3.62;1.50;;;;;;;23.37;42.52;98650.38;4346085;32;33968;-63
2023/04/25 10:38:45;;;;;;;6.20;1.67;;;;;;;23.37;42.47;98644.09;4346488;33;34161;-63
2023/04/25 10:41:13;;;;;;;3.90;1.40;;;;;;;23.36;42.44;98647.88;4350439;32;33905;-63
2023/04/25 10:43:42;;;;;;;5.43;1.70;;;;;;;23.36;42.42;98650.59;4356871;32;33475;-63
2023/04/25 10:46:23;;;;;;;8.48;1.98;;;;;;;23.35;42.42;98640.78;4333155;33;33782;-63
2023/04/25 10:48:54;;;;;;;2.05;1.30;;;;;;;23.35;42.39;98646.25;4345984;32;33874;-63
2023/04/25 10:51:23;;;;;;;4.53;1.37;;;;;;;23.35;42.30;98643.53;4355568;32;34278;-62
2023/04/25 10:54:04;;;;;;;3.60;1.43;;;;;;;23.33;42.21;98657.38;4346329;33;33539;-63
2023/04/25 10:56:41;;;;;;;4.65;1.60;;;;;;;23.35;42.12;98657.94;4346715;32;34809;-62
2023/04/25 10:59:14;;;;;;;4.80;1.40;;;;;;;23.33;42.01;98656.56;4346454;33;33801;-63
2023/04/25 11:01:51;;;;;;;6.18;1.70;;;;;;;23.32;41.98;98661.19;4332698;33;34254;-63
2023/04/25 11:04:29;;;;;;;5.82;1.60;;;;;;;23.33;41.92;98656.56;4333019;33;33334;-63
2023/04/25 11:07:06;;;;;;;4.65;1.27;;;;;;;23.33;41.88;98660.13;4351602;32;34675;-63
2023/04/25 11:09:35;;;;;;;6.30;2.00;;;;;;;23.31;41.87;98653.25;4360961;32;33566;-62
2023/04/25 11:12:03;;;;;;;5.12;1.25;;;;;;;23.31;41.87;98664.16;4359675;32;34229;-63
2023/04/25 11:14:31;;;;;;;4.97;1.80;;;;;;;23.30;41.84;98646.19;4353139;32;33665;-63
2023/04/25 11:16:59;;;;;;;7.35;1.80;;;;;;;23.29;41.83;98658.97;4355381;32;33781;-63
2023/04/25 11:19:28;;;;;;;3.47;1.48;;;;;;;23.31;41.78;98658.72;4360911;32;34761;-63
2023/04/25 11:21:59;;;;;;;5.20;1.50;;;;;;;23.29;41.79;98656.25;4355302;32;34200;-63
2023/04/25 11:24:31;;;;;;;3.22;1.20;;;;;;;23.28;41.79;98662.78;4360298;32;33878;-63
2023/04/25 11:26:59;;;;;;;3.87;1.60;;;;;;;23.28;41.80;98661.94;4348307;32;34910;-63
2023/04/25 11:29:26;;;;;;;3.35;1.75;;;;;;;23.27;41.78;98665.72;4362041;32;35484;-63
2023/04/25 11:31:57;;;;;;;5.62;1.77;;;;;;;23.27;41.79;98666.56;4357543;32;34947;-63
2023/04/25 11:34:25;;;;;;;3.60;1.52;;;;;;;23.27;41.78;98673.88;4360981;32;33819;-63
2023/04/25 11:36:53;;;;;;;3.08;1.15;;;;;;;23.27;41.84;98679.34;4352445;32;33800;-63
2023/04/25 11:39:21;;;;;;;3.75;1.60;;;;;;;23.26;41.82;98683.13;4322195;33;34033;-63
2023/04/25 11:41:48;;;;;;;5.30;1.73;;;;;;;23.25;41.80;98676.06;4347345;32;34353;-63